sensor_id;sensor_type;location;lat;lon;timestamp;temperature;humidity
39695;DHT22;25367;-35.352;149.036;2022-12-20T00:02:11;22.10;47.40
39695;DHT22;25367;-35.352;149.036;2022-12-20T00:04:40;22.10;47.40
39695;DHT22;25367;-35.352;149.036;2022-12-20T00:07:11;22.10;47.40
39695;DHT22;25367;-35.352;149.036;2022-12-20T00:09:41;22.10;47.40
39695;DHT22;25367;-35.352;149.036;2022-12-20T00:12:11;22.10;47.40
39695;DHT22;25367;-35.352;149.036;2022-12-20T00:14:40;22.10;47.40
39695;DHT22;25367;-35.352;149.036;2022-12-20T00:17:10;22.10;47.40
39695;DHT22;25367;-35.352;149.036;2022-12-20T00:19:39;22.10;47.40
39695;DHT22;25367;-35.352;149.036;2022-12-20T00:22:08;22.10;47.40
39695;DHT22;25367;-35.352;149.036;2022-12-20T00:24:40;22.10;47.40
39695;DHT22;25367;-35.352;149.036;2022-12-20T00:27:09;22.10;47.40
39695;DHT22;25367;-35.352;149.036;2022-12-20T00:29:39;22.10;47.40
39695;DHT22;25367;-35.352;149.036;2022-12-20T00:32:08;22.10;47.40
39695;DHT22;25367;-35.352;149.036;2022-12-20T00:34:38;22.10;47.40
39695;DHT22;25367;-35.352;149.036;2022-12-20T00:37:07;22.10;47.40
39695;DHT22;25367;-35.352;149.036;2022-12-20T00:39:39;22.10;47.40
39695;DHT22;25367;-35.352;149.036;2022-12-20T00:42:08;22.10;47.30
39695;DHT22;25367;-35.352;149.036;2022-12-20T00:44:38;22.10;47.40
39695;DHT22;25367;-35.352;149.036;2022-12-20T00:47:07;22.10;47.30
39695;DHT22;25367;-35.352;149.036;2022-12-20T00:49:37;22.20;47.40
39695;DHT22;25367;-35.352;149.036;2022-12-20T00:52:06;22.20;47.40
39695;DHT22;25367;-35.352;149.036;2022-12-20T00:54:36;22.20;47.30
39695;DHT22;25367;-35.352;149.036;2022-12-20T00:57:07;22.20;47.40
39695;DHT22;25367;-35.352;149.036;2022-12-20T00:59:37;22.20;47.30
39695;DHT22;25367;-35.352;149.036;2022-12-20T01:02:06;22.20;47.30
39695;DHT22;25367;-35.352;149.036;2022-12-20T01:04:35;22.20;47.30
39695;DHT22;25367;-35.352;149.036;2022-12-20T01:07:05;22.20;47.20
39695;DHT22;25367;-35.352;149.036;2022-12-20T01:09:34;22.30;47.30
39695;DHT22;25367;-35.352;149.036;2022-12-20T01:12:07;22.20;47.10
39695;DHT22;25367;-35.352;149.036;2022-12-20T01:14:36;22.20;47.10
39695;DHT22;25367;-35.352;149.036;2022-12-20T01:17:06;22.20;47.10
39695;DHT22;25367;-35.352;149.036;2022-12-20T01:19:36;22.20;47.10
39695;DHT22;25367;-35.352;149.036;2022-12-20T01:22:05;22.30;47.10
39695;DHT22;25367;-35.352;149.036;2022-12-20T01:24:35;22.30;47.10
39695;DHT22;25367;-35.352;149.036;2022-12-20T01:27:08;22.30;47.10
39695;DHT22;25367;-35.352;149.036;2022-12-20T01:29:37;22.30;47.10
39695;DHT22;25367;-35.352;149.036;2022-12-20T01:32:06;22.30;47.20
39695;DHT22;25367;-35.352;149.036;2022-12-20T01:37:09;22.30;47.20
39695;DHT22;25367;-35.352;149.036;2022-12-20T01:39:39;22.30;47.30
39695;DHT22;25367;-35.352;149.036;2022-12-20T01:42:13;22.30;47.30
39695;DHT22;25367;-35.352;149.036;2022-12-20T01:44:56;22.30;47.30
39695;DHT22;25367;-35.352;149.036;2022-12-20T01:47:27;22.30;47.20
39695;DHT22;25367;-35.352;149.036;2022-12-20T01:49:59;22.30;47.30
39695;DHT22;25367;-35.352;149.036;2022-12-20T01:52:34;22.30;47.30
39695;DHT22;25367;-35.352;149.036;2022-12-20T01:55:09;22.30;47.30
39695;DHT22;25367;-35.352;149.036;2022-12-20T01:57:45;22.30;47.00
39695;DHT22;25367;-35.352;149.036;2022-12-20T02:00:16;22.30;46.90
39695;DHT22;25367;-35.352;149.036;2022-12-20T02:02:47;22.30;47.00
39695;DHT22;25367;-35.352;149.036;2022-12-20T02:05:19;22.30;47.00
39695;DHT22;25367;-35.352;149.036;2022-12-20T02:07:50;22.30;46.90
39695;DHT22;25367;-35.352;149.036;2022-12-20T02:10:23;22.30;46.90
39695;DHT22;25367;-35.352;149.036;2022-12-20T02:13:01;22.30;47.50
39695;DHT22;25367;-35.352;149.036;2022-12-20T02:15:41;22.30;46.80
39695;DHT22;25367;-35.352;149.036;2022-12-20T02:18:20;22.30;46.90
39695;DHT22;25367;-35.352;149.036;2022-12-20T02:24:14;22.30;46.90
39695;DHT22;25367;-35.352;149.036;2022-12-20T02:27:11;22.30;46.80
39695;DHT22;25367;-35.352;149.036;2022-12-20T02:30:08;22.40;46.80
39695;DHT22;25367;-35.352;149.036;2022-12-20T02:32:45;22.30;46.80
39695;DHT22;25367;-35.352;149.036;2022-12-20T02:35:21;22.30;46.80
39695;DHT22;25367;-35.352;149.036;2022-12-20T02:37:52;22.30;47.50
39695;DHT22;25367;-35.352;149.036;2022-12-20T02:40:24;22.40;46.90
39695;DHT22;25367;-35.352;149.036;2022-12-20T02:42:58;22.40;46.80
39695;DHT22;25367;-35.352;149.036;2022-12-20T02:45:32;22.40;46.80
39695;DHT22;25367;-35.352;149.036;2022-12-20T02:48:07;22.40;46.70
39695;DHT22;25367;-35.352;149.036;2022-12-20T02:50:41;22.40;46.70
39695;DHT22;25367;-35.352;149.036;2022-12-20T02:53:12;22.40;46.80
39695;DHT22;25367;-35.352;149.036;2022-12-20T02:55:47;22.40;46.80
39695;DHT22;25367;-35.352;149.036;2022-12-20T02:58:32;22.40;46.80
39695;DHT22;25367;-35.352;149.036;2022-12-20T03:01:09;22.40;46.70
39695;DHT22;25367;-35.352;149.036;2022-12-20T03:03:40;22.40;46.70
39695;DHT22;25367;-35.352;149.036;2022-12-20T03:06:10;22.40;46.70
39695;DHT22;25367;-35.352;149.036;2022-12-20T03:08:39;22.50;46.70
39695;DHT22;25367;-35.352;149.036;2022-12-20T03:11:09;22.40;46.60
39695;DHT22;25367;-35.352;149.036;2022-12-20T03:13:39;22.50;46.70
39695;DHT22;25367;-35.352;149.036;2022-12-20T03:16:13;22.40;46.50
39695;DHT22;25367;-35.352;149.036;2022-12-20T03:18:42;22.50;46.50
39695;DHT22;25367;-35.352;149.036;2022-12-20T03:21:12;22.50;46.60
39695;DHT22;25367;-35.352;149.036;2022-12-20T03:23:41;22.50;46.50
39695;DHT22;25367;-35.352;149.036;2022-12-20T03:26:11;22.50;46.50
39695;DHT22;25367;-35.352;149.036;2022-12-20T03:28:47;22.50;46.40
39695;DHT22;25367;-35.352;149.036;2022-12-20T03:31:24;22.50;46.50
39695;DHT22;25367;-35.352;149.036;2022-12-20T03:33:56;22.50;46.40
39695;DHT22;25367;-35.352;149.036;2022-12-20T03:36:26;22.50;46.40
39695;DHT22;25367;-35.352;149.036;2022-12-20T03:39:01;22.60;46.50
39695;DHT22;25367;-35.352;149.036;2022-12-20T03:41:33;22.50;46.40
39695;DHT22;25367;-35.352;149.036;2022-12-20T03:44:04;22.50;46.50
39695;DHT22;25367;-35.352;149.036;2022-12-20T03:46:36;22.50;46.70
39695;DHT22;25367;-35.352;149.036;2022-12-20T03:49:06;22.50;46.70
39695;DHT22;25367;-35.352;149.036;2022-12-20T03:51:43;22.60;46.70
39695;DHT22;25367;-35.352;149.036;2022-12-20T03:54:13;22.60;46.70
39695;DHT22;25367;-35.352;149.036;2022-12-20T03:57:02;22.60;46.80
39695;DHT22;25367;-35.352;149.036;2022-12-20T03:59:32;22.60;46.80
39695;DHT22;25367;-35.352;149.036;2022-12-20T04:02:04;22.60;46.80
39695;DHT22;25367;-35.352;149.036;2022-12-20T04:04:34;22.60;46.80
39695;DHT22;25367;-35.352;149.036;2022-12-20T04:07:03;22.60;46.80
39695;DHT22;25367;-35.352;149.036;2022-12-20T04:09:34;22.70;46.90
39695;DHT22;25367;-35.352;149.036;2022-12-20T04:12:09;22.70;46.90
39695;DHT22;25367;-35.352;149.036;2022-12-20T04:14:40;22.70;46.90
39695;DHT22;25367;-35.352;149.036;2022-12-20T04:17:12;22.70;47.00
39695;DHT22;25367;-35.352;149.036;2022-12-20T04:19:43;22.80;47.00
39695;DHT22;25367;-35.352;149.036;2022-12-20T04:22:13;22.80;47.00
39695;DHT22;25367;-35.352;149.036;2022-12-20T04:24:57;22.80;47.00
39695;DHT22;25367;-35.352;149.036;2022-12-20T04:27:30;22.80;47.10
39695;DHT22;25367;-35.352;149.036;2022-12-20T04:30:00;22.80;47.10
39695;DHT22;25367;-35.352;149.036;2022-12-20T04:32:31;22.80;47.10
39695;DHT22;25367;-35.352;149.036;2022-12-20T04:35:02;22.90;47.20
39695;DHT22;25367;-35.352;149.036;2022-12-20T04:37:35;22.80;47.10
39695;DHT22;25367;-35.352;149.036;2022-12-20T04:40:06;22.90;47.10
39695;DHT22;25367;-35.352;149.036;2022-12-20T04:42:49;22.90;47.10
39695;DHT22;25367;-35.352;149.036;2022-12-20T04:45:19;22.90;47.10
39695;DHT22;25367;-35.352;149.036;2022-12-20T04:47:52;22.90;47.10
39695;DHT22;25367;-35.352;149.036;2022-12-20T04:50:28;23.00;47.10
39695;DHT22;25367;-35.352;149.036;2022-12-20T04:52:57;23.00;47.20
39695;DHT22;25367;-35.352;149.036;2022-12-20T04:55:27;23.00;47.20
39695;DHT22;25367;-35.352;149.036;2022-12-20T04:57:59;23.00;47.20
39695;DHT22;25367;-35.352;149.036;2022-12-20T05:00:29;23.00;47.20
39695;DHT22;25367;-35.352;149.036;2022-12-20T05:03:07;23.00;47.20
39695;DHT22;25367;-35.352;149.036;2022-12-20T05:05:37;23.10;47.20
39695;DHT22;25367;-35.352;149.036;2022-12-20T05:08:06;23.10;47.20
39695;DHT22;25367;-35.352;149.036;2022-12-20T05:10:37;23.10;47.20
39695;DHT22;25367;-35.352;149.036;2022-12-20T05:13:08;23.10;47.20
39695;DHT22;25367;-35.352;149.036;2022-12-20T05:15:42;23.20;47.30
39695;DHT22;25367;-35.352;149.036;2022-12-20T05:18:13;23.20;47.30
39695;DHT22;25367;-35.352;149.036;2022-12-20T05:20:55;23.20;47.20
39695;DHT22;25367;-35.352;149.036;2022-12-20T05:23:25;23.20;47.20
39695;DHT22;25367;-35.352;149.036;2022-12-20T05:26:02;23.20;47.20
39695;DHT22;25367;-35.352;149.036;2022-12-20T05:28:32;23.20;47.10
39695;DHT22;25367;-35.352;149.036;2022-12-20T05:31:02;23.30;47.10
39695;DHT22;25367;-35.352;149.036;2022-12-20T05:33:37;23.30;47.10
39695;DHT22;25367;-35.352;149.036;2022-12-20T05:36:07;23.30;47.10
39695;DHT22;25367;-35.352;149.036;2022-12-20T05:38:38;23.40;47.10
39695;DHT22;25367;-35.352;149.036;2022-12-20T05:41:14;23.30;47.00
39695;DHT22;25367;-35.352;149.036;2022-12-20T05:43:47;23.30;47.00
39695;DHT22;25367;-35.352;149.036;2022-12-20T05:46:17;23.40;47.00
39695;DHT22;25367;-35.352;149.036;2022-12-20T05:49:11;23.40;47.10
39695;DHT22;25367;-35.352;149.036;2022-12-20T05:51:40;23.40;47.10
39695;DHT22;25367;-35.352;149.036;2022-12-20T05:54:25;23.40;47.10
39695;DHT22;25367;-35.352;149.036;2022-12-20T05:57:00;23.40;47.10
39695;DHT22;25367;-35.352;149.036;2022-12-20T05:59:36;23.50;47.10
39695;DHT22;25367;-35.352;149.036;2022-12-20T06:02:08;23.50;47.00
39695;DHT22;25367;-35.352;149.036;2022-12-20T06:04:40;23.50;47.00
39695;DHT22;25367;-35.352;149.036;2022-12-20T06:07:19;23.50;47.00
39695;DHT22;25367;-35.352;149.036;2022-12-20T06:09:52;23.50;47.00
39695;DHT22;25367;-35.352;149.036;2022-12-20T06:12:27;23.50;46.90
39695;DHT22;25367;-35.352;149.036;2022-12-20T06:14:57;23.50;46.80
39695;DHT22;25367;-35.352;149.036;2022-12-20T06:17:26;23.60;46.90
39695;DHT22;25367;-35.352;149.036;2022-12-20T06:19:57;23.60;46.80
39695;DHT22;25367;-35.352;149.036;2022-12-20T06:22:27;23.60;46.80
39695;DHT22;25367;-35.352;149.036;2022-12-20T06:24:58;23.60;46.80
39695;DHT22;25367;-35.352;149.036;2022-12-20T06:27:32;23.70;46.80
39695;DHT22;25367;-35.352;149.036;2022-12-20T06:30:09;23.60;46.80
39695;DHT22;25367;-35.352;149.036;2022-12-20T06:33:11;23.70;46.80
39695;DHT22;25367;-35.352;149.036;2022-12-20T06:35:42;23.70;46.90
39695;DHT22;25367;-35.352;149.036;2022-12-20T06:38:12;23.70;47.00
39695;DHT22;25367;-35.352;149.036;2022-12-20T06:40:42;23.80;47.10
39695;DHT22;25367;-35.352;149.036;2022-12-20T06:43:11;23.80;47.00
39695;DHT22;25367;-35.352;149.036;2022-12-20T06:45:41;23.80;46.90
39695;DHT22;25367;-35.352;149.036;2022-12-20T06:48:11;23.90;46.80
39695;DHT22;25367;-35.352;149.036;2022-12-20T06:50:43;23.90;46.80
39695;DHT22;25367;-35.352;149.036;2022-12-20T06:53:12;24.00;46.80
39695;DHT22;25367;-35.352;149.036;2022-12-20T06:55:42;23.90;46.70
39695;DHT22;25367;-35.352;149.036;2022-12-20T06:58:12;24.00;46.70
39695;DHT22;25367;-35.352;149.036;2022-12-20T07:00:41;24.00;46.80
39695;DHT22;25367;-35.352;149.036;2022-12-20T07:03:11;24.10;46.80
39695;DHT22;25367;-35.352;149.036;2022-12-20T07:05:42;24.10;46.70
39695;DHT22;25367;-35.352;149.036;2022-12-20T07:08:12;24.10;46.80
39695;DHT22;25367;-35.352;149.036;2022-12-20T07:10:41;24.10;46.80
39695;DHT22;25367;-35.352;149.036;2022-12-20T07:13:11;24.20;46.80
39695;DHT22;25367;-35.352;149.036;2022-12-20T07:15:40;24.30;46.60
39695;DHT22;25367;-35.352;149.036;2022-12-20T07:18:10;24.40;46.60
39695;DHT22;25367;-35.352;149.036;2022-12-20T07:20:39;24.60;46.50
39695;DHT22;25367;-35.352;149.036;2022-12-20T07:23:12;24.70;46.30
39695;DHT22;25367;-35.352;149.036;2022-12-20T07:25:41;24.80;46.20
39695;DHT22;25367;-35.352;149.036;2022-12-20T07:28:11;24.90;46.00
39695;DHT22;25367;-35.352;149.036;2022-12-20T07:30:40;24.90;45.80
39695;DHT22;25367;-35.352;149.036;2022-12-20T07:33:10;25.00;45.60
39695;DHT22;25367;-35.352;149.036;2022-12-20T07:35:39;25.10;45.50
39695;DHT22;25367;-35.352;149.036;2022-12-20T07:38:12;25.10;45.40
39695;DHT22;25367;-35.352;149.036;2022-12-20T07:40:41;25.20;45.30
39695;DHT22;25367;-35.352;149.036;2022-12-20T07:43:11;25.30;45.30
39695;DHT22;25367;-35.352;149.036;2022-12-20T07:45:40;25.30;45.20
39695;DHT22;25367;-35.352;149.036;2022-12-20T07:48:10;25.40;45.20
39695;DHT22;25367;-35.352;149.036;2022-12-20T07:50:40;25.40;45.00
39695;DHT22;25367;-35.352;149.036;2022-12-20T07:53:14;25.40;45.00
39695;DHT22;25367;-35.352;149.036;2022-12-20T07:55:44;25.50;45.70
39695;DHT22;25367;-35.352;149.036;2022-12-20T07:58:15;25.50;45.10
39695;DHT22;25367;-35.352;149.036;2022-12-20T08:00:45;25.50;45.10
39695;DHT22;25367;-35.352;149.036;2022-12-20T08:03:16;25.50;45.10
39695;DHT22;25367;-35.352;149.036;2022-12-20T08:05:48;25.50;45.00
39695;DHT22;25367;-35.352;149.036;2022-12-20T08:08:21;25.50;44.90
39695;DHT22;25367;-35.352;149.036;2022-12-20T08:10:51;25.40;44.90
39695;DHT22;25367;-35.352;149.036;2022-12-20T08:13:21;25.40;44.90
39695;DHT22;25367;-35.352;149.036;2022-12-20T08:15:50;25.40;44.90
39695;DHT22;25367;-35.352;149.036;2022-12-20T08:18:20;25.40;44.90
39695;DHT22;25367;-35.352;149.036;2022-12-20T08:20:49;25.40;44.90
39695;DHT22;25367;-35.352;149.036;2022-12-20T08:23:20;25.40;44.90
39695;DHT22;25367;-35.352;149.036;2022-12-20T08:25:50;25.40;45.00
39695;DHT22;25367;-35.352;149.036;2022-12-20T08:28:19;25.40;45.00
39695;DHT22;25367;-35.352;149.036;2022-12-20T08:30:49;25.30;45.00
39695;DHT22;25367;-35.352;149.036;2022-12-20T08:33:18;25.30;45.00
39695;DHT22;25367;-35.352;149.036;2022-12-20T08:35:55;25.30;45.00
39695;DHT22;25367;-35.352;149.036;2022-12-20T08:38:26;25.30;45.10
39695;DHT22;25367;-35.352;149.036;2022-12-20T08:41:00;25.30;45.20
39695;DHT22;25367;-35.352;149.036;2022-12-20T08:43:30;25.30;45.20
39695;DHT22;25367;-35.352;149.036;2022-12-20T08:46:00;25.30;45.10
39695;DHT22;25367;-35.352;149.036;2022-12-20T08:48:30;25.20;45.10
39695;DHT22;25367;-35.352;149.036;2022-12-20T08:51:00;25.20;45.20
39695;DHT22;25367;-35.352;149.036;2022-12-20T08:53:33;25.20;45.10
39695;DHT22;25367;-35.352;149.036;2022-12-20T08:56:07;25.20;45.10
39695;DHT22;25367;-35.352;149.036;2022-12-20T08:58:37;25.10;45.20
39695;DHT22;25367;-35.352;149.036;2022-12-20T09:01:07;25.20;45.30
39695;DHT22;25367;-35.352;149.036;2022-12-20T09:03:37;25.10;45.20
39695;DHT22;25367;-35.352;149.036;2022-12-20T09:06:08;25.10;45.20
39695;DHT22;25367;-35.352;149.036;2022-12-20T09:08:40;25.10;45.30
39695;DHT22;25367;-35.352;149.036;2022-12-20T09:11:11;25.10;45.40
39695;DHT22;25367;-35.352;149.036;2022-12-20T09:13:41;25.10;45.40
39695;DHT22;25367;-35.352;149.036;2022-12-20T09:16:13;25.00;45.30
39695;DHT22;25367;-35.352;149.036;2022-12-20T09:18:42;25.00;45.30
39695;DHT22;25367;-35.352;149.036;2022-12-20T09:21:12;25.00;45.30
39695;DHT22;25367;-35.352;149.036;2022-12-20T09:23:46;25.00;45.30
39695;DHT22;25367;-35.352;149.036;2022-12-20T09:26:19;25.00;45.30
39695;DHT22;25367;-35.352;149.036;2022-12-20T09:28:49;25.00;45.50
39695;DHT22;25367;-35.352;149.036;2022-12-20T09:31:20;25.00;45.40
39695;DHT22;25367;-35.352;149.036;2022-12-20T09:33:53;24.90;45.70
39695;DHT22;25367;-35.352;149.036;2022-12-20T09:36:24;24.90;45.50
39695;DHT22;25367;-35.352;149.036;2022-12-20T09:38:56;24.90;45.40
39695;DHT22;25367;-35.352;149.036;2022-12-20T09:41:28;24.90;45.40
39695;DHT22;25367;-35.352;149.036;2022-12-20T09:44:02;24.90;45.40
39695;DHT22;25367;-35.352;149.036;2022-12-20T09:46:32;24.90;45.20
39695;DHT22;25367;-35.352;149.036;2022-12-20T09:49:02;24.90;45.20
39695;DHT22;25367;-35.352;149.036;2022-12-20T09:54:32;24.90;45.20
39695;DHT22;25367;-35.352;149.036;2022-12-20T09:57:12;24.80;45.20
39695;DHT22;25367;-35.352;149.036;2022-12-20T09:59:44;24.80;45.30
39695;DHT22;25367;-35.352;149.036;2022-12-20T10:02:18;24.80;46.00
39695;DHT22;25367;-35.352;149.036;2022-12-20T10:04:48;24.80;45.40
39695;DHT22;25367;-35.352;149.036;2022-12-20T10:07:26;24.80;45.30
39695;DHT22;25367;-35.352;149.036;2022-12-20T10:10:26;24.80;45.40
39695;DHT22;25367;-35.352;149.036;2022-12-20T10:13:04;24.80;45.40
39695;DHT22;25367;-35.352;149.036;2022-12-20T10:15:37;24.80;45.40
39695;DHT22;25367;-35.352;149.036;2022-12-20T10:18:30;24.70;45.30
39695;DHT22;25367;-35.352;149.036;2022-12-20T10:21:07;24.80;45.40
39695;DHT22;25367;-35.352;149.036;2022-12-20T10:23:41;24.80;45.30
39695;DHT22;25367;-35.352;149.036;2022-12-20T10:26:14;24.80;45.40
39695;DHT22;25367;-35.352;149.036;2022-12-20T10:28:43;24.70;45.20
39695;DHT22;25367;-35.352;149.036;2022-12-20T10:31:13;24.70;45.40
39695;DHT22;25367;-35.352;149.036;2022-12-20T10:33:43;24.80;45.10
39695;DHT22;25367;-35.352;149.036;2022-12-20T10:36:21;24.70;44.90
39695;DHT22;25367;-35.352;149.036;2022-12-20T10:38:53;24.70;45.00
39695;DHT22;25367;-35.352;149.036;2022-12-20T10:41:26;24.70;45.00
39695;DHT22;25367;-35.352;149.036;2022-12-20T10:43:59;24.70;45.00
39695;DHT22;25367;-35.352;149.036;2022-12-20T10:46:37;24.70;45.00
39695;DHT22;25367;-35.352;149.036;2022-12-20T10:49:28;24.70;45.10
39695;DHT22;25367;-35.352;149.036;2022-12-20T10:52:00;24.80;45.20
39695;DHT22;25367;-35.352;149.036;2022-12-20T10:54:33;24.70;45.10
39695;DHT22;25367;-35.352;149.036;2022-12-20T10:57:15;24.70;45.00
39695;DHT22;25367;-35.352;149.036;2022-12-20T10:59:46;24.70;45.00
39695;DHT22;25367;-35.352;149.036;2022-12-20T11:02:26;24.60;45.30
39695;DHT22;25367;-35.352;149.036;2022-12-20T11:05:00;24.70;45.30
39695;DHT22;25367;-35.352;149.036;2022-12-20T11:07:31;24.70;45.30
39695;DHT22;25367;-35.352;149.036;2022-12-20T11:10:02;24.70;45.20
39695;DHT22;25367;-35.352;149.036;2022-12-20T11:12:34;24.70;45.10
39695;DHT22;25367;-35.352;149.036;2022-12-20T11:15:15;24.70;45.10
39695;DHT22;25367;-35.352;149.036;2022-12-20T11:17:48;24.80;45.20
39695;DHT22;25367;-35.352;149.036;2022-12-20T11:20:31;24.80;45.10
39695;DHT22;25367;-35.352;149.036;2022-12-20T11:23:13;24.80;45.00
39695;DHT22;25367;-35.352;149.036;2022-12-20T11:25:57;24.80;45.10
39695;DHT22;25367;-35.352;149.036;2022-12-20T11:28:44;24.80;45.20
39695;DHT22;25367;-35.352;149.036;2022-12-20T11:31:23;24.80;45.00
39695;DHT22;25367;-35.352;149.036;2022-12-20T11:34:02;24.80;45.00
39695;DHT22;25367;-35.352;149.036;2022-12-20T11:36:48;24.80;44.90
39695;DHT22;25367;-35.352;149.036;2022-12-20T11:39:29;24.80;44.90
39695;DHT22;25367;-35.352;149.036;2022-12-20T11:42:04;24.80;44.90
39695;DHT22;25367;-35.352;149.036;2022-12-20T11:44:51;24.80;44.90
39695;DHT22;25367;-35.352;149.036;2022-12-20T11:50:31;24.80;45.10
39695;DHT22;25367;-35.352;149.036;2022-12-20T11:53:07;24.80;45.10
39695;DHT22;25367;-35.352;149.036;2022-12-20T11:55:40;24.70;45.10
39695;DHT22;25367;-35.352;149.036;2022-12-20T11:58:16;24.70;45.10
39695;DHT22;25367;-35.352;149.036;2022-12-20T12:00:52;24.80;45.20
39695;DHT22;25367;-35.352;149.036;2022-12-20T12:03:29;24.70;45.20
39695;DHT22;25367;-35.352;149.036;2022-12-20T12:06:04;24.80;45.20
39695;DHT22;25367;-35.352;149.036;2022-12-20T12:08:42;24.70;45.00
39695;DHT22;25367;-35.352;149.036;2022-12-20T12:11:18;24.80;45.10
39695;DHT22;25367;-35.352;149.036;2022-12-20T12:13:49;24.70;45.00
39695;DHT22;25367;-35.352;149.036;2022-12-20T12:16:24;24.70;45.10
39695;DHT22;25367;-35.352;149.036;2022-12-20T12:18:58;24.70;45.10
39695;DHT22;25367;-35.352;149.036;2022-12-20T12:21:32;24.70;45.10
39695;DHT22;25367;-35.352;149.036;2022-12-20T12:24:06;24.70;45.10
39695;DHT22;25367;-35.352;149.036;2022-12-20T12:26:41;24.60;45.10
39695;DHT22;25367;-35.352;149.036;2022-12-20T12:29:12;24.60;45.10
39695;DHT22;25367;-35.352;149.036;2022-12-20T12:31:50;24.60;45.10
39695;DHT22;25367;-35.352;149.036;2022-12-20T12:34:33;24.60;45.10
39695;DHT22;25367;-35.352;149.036;2022-12-20T12:40:27;24.50;45.20
39695;DHT22;25367;-35.352;149.036;2022-12-20T12:46:14;24.60;45.20
39695;DHT22;25367;-35.352;149.036;2022-12-20T12:48:53;24.50;45.20
39695;DHT22;25367;-35.352;149.036;2022-12-20T12:51:28;24.50;45.20
39695;DHT22;25367;-35.352;149.036;2022-12-20T12:54:17;24.50;45.10
39695;DHT22;25367;-35.352;149.036;2022-12-20T12:56:48;24.50;45.10
39695;DHT22;25367;-35.352;149.036;2022-12-20T12:59:26;24.40;45.10
39695;DHT22;25367;-35.352;149.036;2022-12-20T13:02:35;24.40;45.10
39695;DHT22;25367;-35.352;149.036;2022-12-20T13:05:37;24.40;45.10
39695;DHT22;25367;-35.352;149.036;2022-12-20T13:08:15;24.40;45.10
39695;DHT22;25367;-35.352;149.036;2022-12-20T13:11:11;24.30;45.10
39695;DHT22;25367;-35.352;149.036;2022-12-20T13:13:41;24.30;45.00
39695;DHT22;25367;-35.352;149.036;2022-12-20T13:16:12;24.30;45.10
39695;DHT22;25367;-35.352;149.036;2022-12-20T13:19:10;24.30;45.10
39695;DHT22;25367;-35.352;149.036;2022-12-20T13:21:44;24.30;45.10
39695;DHT22;25367;-35.352;149.036;2022-12-20T13:27:35;24.30;45.00
39695;DHT22;25367;-35.352;149.036;2022-12-20T13:33:38;24.20;45.10
39695;DHT22;25367;-35.352;149.036;2022-12-20T13:36:29;24.20;45.10
39695;DHT22;25367;-35.352;149.036;2022-12-20T13:41:47;24.10;45.10
39695;DHT22;25367;-35.352;149.036;2022-12-20T13:44:40;24.10;45.10
39695;DHT22;25367;-35.352;149.036;2022-12-20T13:50:27;24.10;45.10
39695;DHT22;25367;-35.352;149.036;2022-12-20T13:52:58;24.10;45.10
39695;DHT22;25367;-35.352;149.036;2022-12-20T13:55:39;24.00;45.10
39695;DHT22;25367;-35.352;149.036;2022-12-20T13:58:15;24.00;45.00
39695;DHT22;25367;-35.352;149.036;2022-12-20T14:00:45;24.00;45.10
39695;DHT22;25367;-35.352;149.036;2022-12-20T14:03:20;24.00;45.10
39695;DHT22;25367;-35.352;149.036;2022-12-20T14:05:55;24.00;45.00
39695;DHT22;25367;-35.352;149.036;2022-12-20T14:08:29;23.90;45.00
39695;DHT22;25367;-35.352;149.036;2022-12-20T14:11:10;23.90;45.00
39695;DHT22;25367;-35.352;149.036;2022-12-20T14:13:41;23.90;45.00
39695;DHT22;25367;-35.352;149.036;2022-12-20T14:16:14;23.90;45.10
39695;DHT22;25367;-35.352;149.036;2022-12-20T14:18:49;23.90;45.10
39695;DHT22;25367;-35.352;149.036;2022-12-20T14:21:19;23.90;45.10
39695;DHT22;25367;-35.352;149.036;2022-12-20T14:23:49;23.80;45.00
39695;DHT22;25367;-35.352;149.036;2022-12-20T14:26:23;23.90;45.10
39695;DHT22;25367;-35.352;149.036;2022-12-20T14:28:53;23.80;45.10
39695;DHT22;25367;-35.352;149.036;2022-12-20T14:31:26;23.80;45.10
39695;DHT22;25367;-35.352;149.036;2022-12-20T14:34:04;23.80;45.10
39695;DHT22;25367;-35.352;149.036;2022-12-20T14:36:34;23.80;45.10
39695;DHT22;25367;-35.352;149.036;2022-12-20T14:39:24;23.80;45.10
39695;DHT22;25367;-35.352;149.036;2022-12-20T14:41:59;23.80;45.10
39695;DHT22;25367;-35.352;149.036;2022-12-20T14:44:30;23.70;45.10
39695;DHT22;25367;-35.352;149.036;2022-12-20T14:47:02;23.70;45.20
39695;DHT22;25367;-35.352;149.036;2022-12-20T14:49:33;23.70;45.20
39695;DHT22;25367;-35.352;149.036;2022-12-20T14:52:11;23.70;45.20
39695;DHT22;25367;-35.352;149.036;2022-12-20T14:54:46;23.70;45.20
39695;DHT22;25367;-35.352;149.036;2022-12-20T14:57:23;23.60;45.20
39695;DHT22;25367;-35.352;149.036;2022-12-20T15:00:09;23.70;45.20
39695;DHT22;25367;-35.352;149.036;2022-12-20T15:02:41;23.60;45.20
39695;DHT22;25367;-35.352;149.036;2022-12-20T15:05:36;23.60;45.20
39695;DHT22;25367;-35.352;149.036;2022-12-20T15:08:13;23.60;45.10
39695;DHT22;25367;-35.352;149.036;2022-12-20T15:10:46;23.50;45.20
39695;DHT22;25367;-35.352;149.036;2022-12-20T15:13:20;23.50;45.20
39695;DHT22;25367;-35.352;149.036;2022-12-20T15:15:50;23.50;45.20
39695;DHT22;25367;-35.352;149.036;2022-12-20T15:18:20;23.50;45.30
39695;DHT22;25367;-35.352;149.036;2022-12-20T15:20:58;23.50;45.30
39695;DHT22;25367;-35.352;149.036;2022-12-20T15:23:29;23.50;45.30
39695;DHT22;25367;-35.352;149.036;2022-12-20T15:25:59;23.40;45.30
39695;DHT22;25367;-35.352;149.036;2022-12-20T15:28:30;23.50;45.30
39695;DHT22;25367;-35.352;149.036;2022-12-20T15:31:00;23.40;45.50
39695;DHT22;25367;-35.352;149.036;2022-12-20T15:33:31;23.40;45.30
39695;DHT22;25367;-35.352;149.036;2022-12-20T15:36:02;23.40;45.30
39695;DHT22;25367;-35.352;149.036;2022-12-20T15:38:31;23.40;45.30
39695;DHT22;25367;-35.352;149.036;2022-12-20T15:41:04;23.40;45.30
39695;DHT22;25367;-35.352;149.036;2022-12-20T15:43:38;23.40;45.30
39695;DHT22;25367;-35.352;149.036;2022-12-20T15:46:07;23.40;45.40
39695;DHT22;25367;-35.352;149.036;2022-12-20T15:48:37;23.30;45.40
39695;DHT22;25367;-35.352;149.036;2022-12-20T15:51:15;23.30;45.40
39695;DHT22;25367;-35.352;149.036;2022-12-20T15:53:45;23.30;45.40
39695;DHT22;25367;-35.352;149.036;2022-12-20T15:56:20;23.30;45.50
39695;DHT22;25367;-35.352;149.036;2022-12-20T15:58:52;23.30;45.40